Time;durP1;ratioP1;P1;durP2;ratioP2;P2;SDS_P1;SDS_P2;PMS_P1;PMS_P2;Temp;Humidity;BMP_temperature;BMP_pressure;BME280_temperature;BME280_humidity;BME280_pressure;Samples;Min_cycle;Max_cycle;Signal;HPM_P1;HPM_P2
2023/05/03 00:00:36;;;;;;;0.90;0.80;;;;;9.20;96769.00;;;;5076593;28;20261;-64
2023/05/03 00:03:13;;;;;;;0.97;0.97;;;;;9.20;96776.00;;;;5076152;28;20216;-65
2023/05/03 00:05:43;;;;;;;1.77;1.67;;;;;9.20;96772.00;;;;5076432;28;20549;-64
2023/05/03 00:08:12;;;;;;;0.73;0.73;;;;;9.20;96775.00;;;;5076166;28;20252;-64
2023/05/03 00:10:42;;;;;;;1.13;1.10;;;;;9.10;96770.00;;;;5076176;28;20199;-64
2023/05/03 00:13:09;;;;;;;3.80;1.60;;;;;9.20;96776.00;;;;5076117;28;20195;-64
2023/05/03 00:15:37;;;;;;;1.77;1.67;;;;;9.20;96778.00;;;;5076023;28;20215;-64
2023/05/03 00:18:06;;;;;;;0.97;0.97;;;;;9.20;96774.00;;;;5075884;28;20192;-65
2023/05/03 00:20:37;;;;;;;1.73;1.63;;;;;9.20;96766.00;;;;5075976;28;20176;-64
2023/05/03 00:23:10;;;;;;;2.33;1.80;;;;;9.20;96767.00;;;;5075803;28;20284;-64
2023/05/03 00:25:39;;;;;;;2.57;1.53;;;;;9.20;96762.00;;;;5076062;28;20288;-64
2023/05/03 00:28:07;;;;;;;1.20;1.20;;;;;9.10;96759.00;;;;5075767;28;20697;-64
2023/05/03 00:30:37;;;;;;;1.20;1.20;;;;;9.10;96754.00;;;;5076313;28;20179;-66
2023/05/03 00:33:06;;;;;;;0.80;0.80;;;;;9.10;96753.00;;;;5075831;28;20309;-65
2023/05/03 00:35:38;;;;;;;1.27;1.27;;;;;9.00;96753.00;;;;5075959;28;20225;-64
2023/05/03 00:38:15;;;;;;;1.33;1.33;;;;;9.00;96753.00;;;;5076148;28;20182;-65
2023/05/03 00:40:43;;;;;;;13.87;1.00;;;;;8.90;96742.00;;;;5075844;28;20264;-65
2023/05/03 00:43:15;;;;;;;1.47;1.37;;;;;8.70;96748.00;;;;5075406;28;20215;-64
2023/05/03 00:45:53;;;;;;;1.20;1.10;;;;;8.70;96741.00;;;;5075452;28;20223;-65
2023/05/03 00:48:21;;;;;;;1.27;1.27;;;;;8.60;96731.00;;;;5075448;28;20180;-64
2023/05/03 00:50:59;;;;;;;1.70;1.60;;;;;8.60;96736.00;;;;5075374;28;20191;-64
2023/05/03 00:53:56;;;;;;;1.23;1.00;;;;;8.50;96735.00;;;;5074609;28;20708;-64
2023/05/03 00:56:27;;;;;;;1.57;1.47;;;;;8.50;96740.00;;;;5075389;28;20207;-65
2023/05/03 00:58:59;;;;;;;2.10;2.00;;;;;8.60;96730.00;;;;5075508;28;20207;-64
2023/05/03 01:01:32;;;;;;;1.70;1.20;;;;;8.50;96739.00;;;;5074397;28;20313;-65
2023/05/03 01:04:07;;;;;;;2.53;2.10;;;;;8.40;96725.00;;;;5075469;28;20218;-64
2023/05/03 01:06:42;;;;;;;2.37;1.27;;;;;8.00;96731.00;;;;5075304;28;20214;-64
2023/05/03 01:09:22;;;;;;;1.33;1.33;;;;;7.60;96727.00;;;;5075122;28;20627;-64
2023/05/03 01:12:06;;;;;;;1.10;1.10;;;;;7.50;96727.00;;;;5075216;28;20207;-64
2023/05/03 01:14:41;;;;;;;1.10;1.10;;;;;7.70;96729.00;;;;5075283;28;20190;-65
2023/05/03 01:17:12;;;;;;;0.80;0.80;;;;;7.70;96736.00;;;;5075228;28;20213;-64
2023/05/03 01:19:46;;;;;;;0.77;0.77;;;;;7.90;96730.00;;;;5074872;28;20179;-65
2023/05/03 01:22:26;;;;;;;1.07;1.07;;;;;8.00;96733.00;;;;5074786;28;20203;-63
2023/05/03 01:25:08;;;;;;;1.10;1.10;;;;;8.10;96724.00;;;;5075101;28;20226;-63
2023/05/03 01:27:38;;;;;;;1.57;1.13;;;;;8.30;96726.00;;;;5056709;28;20548;-64
2023/05/03 01:30:07;;;;;;;1.13;1.13;;;;;8.30;96733.00;;;;5074879;28;20179;-64
2023/05/03 01:32:46;;;;;;;1.03;1.03;;;;;8.30;96720.00;;;;5074607;28;20188;-64
2023/05/03 01:35:20;;;;;;;0.80;0.80;;;;;8.10;96718.00;;;;5074523;28;20218;-63
2023/05/03 01:37:49;;;;;;;1.03;1.03;;;;;8.20;96717.00;;;;5074850;28;20546;-63
2023/05/03 01:40:18;;;;;;;1.50;1.40;;;;;8.20;96715.00;;;;5074782;28;20556;-64
2023/05/03 01:42:46;;;;;;;1.83;1.73;;;;;8.10;96719.00;;;;5074559;28;20211;-64
2023/05/03 01:45:14;;;;;;;1.10;1.10;;;;;8.10;96722.00;;;;5056126;28;20292;-64
2023/05/03 01:47:41;;;;;;;0.90;0.90;;;;;8.10;96716.00;;;;5074722;28;20190;-64
2023/05/03 01:50:10;;;;;;;1.67;1.57;;;;;8.10;96719.00;;;;5074449;28;20191;-64
2023/05/03 01:52:37;;;;;;;1.40;1.30;;;;;8.00;96717.00;;;;5074429;28;20199;-64
2023/05/03 01:55:05;;;;;;;1.47;1.37;;;;;7.90;96717.00;;;;5074034;28;20222;-64
2023/05/03 01:57:34;;;;;;;1.87;1.77;;;;;7.90;96712.00;;;;5074064;28;20188;-64
2023/05/03 02:00:02;;;;;;;2.30;1.67;;;;;7.80;96712.00;;;;5074042;28;20188;-64
2023/05/03 02:02:29;;;;;;;1.20;1.20;;;;;7.90;96707.00;;;;5073908;28;20211;-64
2023/05/03 02:04:57;;;;;;;1.63;1.53;;;;;7.90;96708.00;;;;5073804;28;20570;-65
2023/05/03 02:07:24;;;;;;;1.73;1.63;;;;;7.80;96709.00;;;;5073953;28;20200;-65
2023/05/03 02:09:52;;;;;;;1.37;1.33;;;;;7.70;96711.00;;;;5073981;28;20199;-64
2023/05/03 02:12:19;;;;;;;1.23;1.23;;;;;7.60;96710.00;;;;5073634;28;20194;-63
2023/05/03 02:14:48;;;;;;;2.07;1.50;;;;;7.70;96713.00;;;;5074107;28;20202;-65
2023/05/03 02:17:16;;;;;;;1.20;1.10;;;;;7.50;96710.00;;;;5073625;28;20253;-64
2023/05/03 02:19:43;;;;;;;1.47;1.37;;;;;7.50;96709.00;;;;5073500;28;20187;-63
2023/05/03 02:22:10;;;;;;;0.80;0.80;;;;;7.50;96710.00;;;;5073652;28;20195;-64
2023/05/03 02:24:38;;;;;;;3.17;1.60;;;;;7.40;96704.00;;;;5073389;28;20191;-64
2023/05/03 02:27:06;;;;;;;1.60;1.50;;;;;7.50;96702.00;;;;5073603;28;20201;-64
2023/05/03 02:29:33;;;;;;;1.70;1.60;;;;;7.50;96708.00;;;;5073385;28;20195;-64
2023/05/03 02:32:04;;;;;;;1.30;1.30;;;;;7.50;96701.00;;;;5055447;28;20206;-64
2023/05/03 02:34:31;;;;;;;1.43;1.37;;;;;7.40;96701.00;;;;5073527;28;20189;-64
2023/05/03 02:36:59;;;;;;;1.03;1.03;;;;;7.50;96697.00;;;;5073452;28;20215;-63
2023/05/03 02:39:26;;;;;;;0.90;0.90;;;;;7.40;96697.00;;;;5073376;28;20199;-64
2023/05/03 02:41:53;;;;;;;1.70;1.60;;;;;7.50;96701.00;;;;5073293;28;20198;-64
2023/05/03 02:44:21;;;;;;;1.13;1.13;;;;;7.50;96707.00;;;;5073179;28;20207;-64
2023/05/03 02:46:48;;;;;;;2.27;1.50;;;;;7.50;96689.00;;;;5073043;28;20276;-64
2023/05/03 02:49:20;;;;;;;1.20;1.20;;;;;7.40;96701.00;;;;5073168;28;20207;-64
2023/05/03 02:51:47;;;;;;;1.30;1.30;;;;;7.50;96698.00;;;;5073454;28;20187;-64
2023/05/03 02:54:15;;;;;;;1.73;1.47;;;;;7.40;96690.00;;;;5055017;28;20198;-64
2023/05/03 02:56:42;;;;;;;2.40;1.43;;;;;7.30;96688.00;;;;5072974;28;20219;-64
2023/05/03 02:59:10;;;;;;;2.20;1.63;;;;;7.40;96699.00;;;;5072909;28;20194;-64
2023/05/03 03:01:38;;;;;;;1.00;1.00;;;;;7.30;96701.00;;;;5072870;28;20195;-64
2023/05/03 03:04:06;;;;;;;1.13;1.13;;;;;7.30;96692.00;;;;5072868;28;20211;-64
2023/05/03 03:06:35;;;;;;;0.93;0.93;;;;;7.20;96693.00;;;;5072772;28;20281;-64
2023/05/03 03:09:02;;;;;;;1.87;1.77;;;;;7.20;96689.00;;;;5072795;28;20191;-64
2023/05/03 03:11:30;;;;;;;0.60;0.60;;;;;7.20;96697.00;;;;5072776;28;20278;-63
2023/05/03 03:13:57;;;;;;;1.27;1.20;;;;;7.20;96691.00;;;;5073511;28;20197;-64
2023/05/03 03:16:25;;;;;;;1.53;1.43;;;;;7.10;96692.00;;;;5072745;28;20218;-64
2023/05/03 03:18:52;;;;;;;2.23;1.37;;;;;7.00;96700.00;;;;5072710;28;20187;-63
2023/05/03 03:21:19;;;;;;;1.60;1.27;;;;;7.00;96689.00;;;;5072642;28;20199;-63
2023/05/03 03:23:48;;;;;;;1.67;1.57;;;;;6.90;96693.00;;;;5072768;28;20215;-64
2023/05/03 03:26:15;;;;;;;4.23;2.33;;;;;6.90;96705.00;;;;5079003;28;20765;-64
2023/05/03 03:28:43;;;;;;;6.97;2.03;;;;;6.90;96700.00;;;;5079320;28;20198;-64
2023/05/03 03:31:10;;;;;;;1.37;1.33;;;;;6.70;96698.00;;;;5079343;28;20198;-64
2023/05/03 03:33:38;;;;;;;1.33;1.27;;;;;6.70;96693.00;;;;5079550;28;20187;-64
2023/05/03 03:36:06;;;;;;;1.93;1.83;;;;;6.80;96701.00;;;;5079452;28;20686;-64
2023/05/03 03:38:34;;;;;;;0.87;0.87;;;;;6.80;96706.00;;;;5079503;28;20685;-64
2023/05/03 03:41:02;;;;;;;1.47;1.43;;;;;6.90;96699.00;;;;5079455;28;20198;-64
2023/05/03 03:43:30;;;;;;;1.53;1.47;;;;;6.90;96702.00;;;;5079517;28;20219;-64
2023/05/03 03:45:57;;;;;;;1.83;1.73;;;;;6.80;96701.00;;;;5079271;28;20230;-64
2023/05/03 03:48:24;;;;;;;0.90;0.90;;;;;6.60;96702.00;;;;5079414;28;20252;-64
2023/05/03 03:50:52;;;;;;;1.40;1.40;;;;;6.60;96699.00;;;;5079320;28;20199;-66
2023/05/03 03:53:19;;;;;;;1.57;1.47;;;;;6.70;96714.00;;;;5079577;28;20554;-64
2023/05/03 03:55:47;;;;;;;0.90;0.90;;;;;6.60;96711.00;;;;5061588;28;20733;-64
2023/05/03 03:58:15;;;;;;;1.10;1.00;;;;;6.70;96710.00;;;;5079276;28;20192;-64
2023/05/03 04:00:43;;;;;;;2.07;1.87;;;;;6.70;96716.00;;;;5079259;28;20191;-63
2023/05/03 04:03:10;;;;;;;1.60;1.50;;;;;6.70;96730.00;;;;5079156;28;20272;-63
2023/05/03 04:05:38;;;;;;;2.30;2.10;;;;;6.80;96721.00;;;;5079149;28;20219;-63
2023/05/03 04:08:06;;;;;;;1.50;1.40;;;;;6.90;96724.00;;;;5079200;28;20199;-64
2023/05/03 04:10:33;;;;;;;1.93;1.83;;;;;6.80;96725.00;;;;5079107;28;20282;-64
2023/05/03 04:13:00;;;;;;;2.83;2.00;;;;;6.70;96723.00;;;;5079090;28;20236;-64
2023/05/03 04:15:29;;;;;;;1.80;1.70;;;;;6.70;96727.00;;;;5079529;28;20211;-65
2023/05/03 04:17:56;;;;;;;1.83;1.73;;;;;6.70;96724.00;;;;5079409;28;20187;-64
2023/05/03 04:20:24;;;;;;;0.80;0.80;;;;;6.70;96731.00;;;;5079050;28;20187;-64
2023/05/03 04:22:51;;;;;;;1.47;1.37;;;;;6.80;96722.00;;;;5079019;28;20198;-64
2023/05/03 04:25:19;;;;;;;2.70;2.50;;;;;6.80;96718.00;;;;5079240;28;20694;-64
2023/05/03 04:27:47;;;;;;;3.63;2.27;;;;;6.90;96719.00;;;;5079778;28;20200;-63
2023/05/03 04:30:16;;;;;;;1.03;1.03;;;;;6.80;96730.00;;;;5079036;28;20202;-63
2023/05/03 04:32:46;;;;;;;1.70;1.60;;;;;6.90;96727.00;;;;5080053;28;20526;-64
2023/05/03 04:35:14;;;;;;;2.00;1.10;;;;;6.90;96724.00;;;;5079938;28;20293;-64
2023/05/03 04:37:42;;;;;;;0.83;0.83;;;;;7.00;96728.00;;;;5056458;28;20286;-64
2023/05/03 04:40:11;;;;;;;1.37;1.37;;;;;7.00;96724.00;;;;5057746;28;20203;-64
2023/05/03 04:42:39;;;;;;;2.30;1.37;;;;;7.20;96728.00;;;;5075691;28;20202;-64
2023/05/03 04:45:08;;;;;;;1.23;1.23;;;;;7.10;96730.00;;;;5075886;28;20265;-64
2023/05/03 04:47:36;;;;;;;1.70;1.60;;;;;7.10;96717.00;;;;5075641;28;20601;-64
2023/05/03 04:50:06;;;;;;;1.47;1.07;;;;;7.10;96725.00;;;;5075468;28;20282;-64
2023/05/03 04:52:35;;;;;;;1.27;1.27;;;;;7.10;96730.00;;;;5075849;28;20183;-64
2023/05/03 04:55:04;;;;;;;1.10;1.10;;;;;7.40;96722.00;;;;5075158;28;20207;-64
2023/05/03 04:57:32;;;;;;;1.60;1.53;;;;;7.50;96722.00;;;;5075209;28;20222;-64
2023/05/03 04:59:59;;;;;;;1.80;1.70;;;;;7.60;96724.00;;;;5075280;28;20269;-65
2023/05/03 05:02:27;;;;;;;1.37;1.37;;;;;7.80;96723.00;;;;5075305;28;20298;-64
2023/05/03 05:04:54;;;;;;;1.50;1.40;;;;;7.80;96740.00;;;;5075697;28;20310;-64
2023/05/03 05:07:23;;;;;;;2.73;2.53;;;;;7.90;96734.00;;;;5075255;28;20601;-64
2023/05/03 05:09:50;;;;;;;1.67;1.57;;;;;8.00;96733.00;;;;5075189;28;20252;-64
2023/05/03 05:12:18;;;;;;;1.63;1.53;;;;;7.80;96733.00;;;;5075229;28;20192;-64
2023/05/03 05:14:45;;;;;;;1.97;1.87;;;;;7.70;96732.00;;;;5075173;28;20211;-65
2023/05/03 05:17:13;;;;;;;1.40;1.40;;;;;7.80;96729.00;;;;5075098;28;20537;-64
2023/05/03 05:19:43;;;;;;;1.30;1.30;;;;;7.70;96730.00;;;;5075231;28;20558;-64
2023/05/03 05:22:10;;;;;;;0.87;0.87;;;;;7.80;96733.00;;;;5074784;28;20206;-64
2023/05/03 05:24:39;;;;;;;0.90;0.90;;;;;7.80;96740.00;;;;5074666;28;20264;-64
2023/05/03 05:27:06;;;;;;;1.40;1.30;;;;;7.90;96743.00;;;;5075144;28;20554;-64
2023/05/03 05:29:33;;;;;;;0.90;0.90;;;;;7.80;96736.00;;;;5074768;28;20658;-64
2023/05/03 05:32:02;;;;;;;1.53;1.47;;;;;7.90;96740.00;;;;5074778;28;20195;-64
2023/05/03 05:34:30;;;;;;;1.37;1.27;;;;;7.80;96745.00;;;;5074750;28;20245;-65
2023/05/03 05:36:57;;;;;;;3.97;1.63;;;;;7.80;96754.00;;;;5074704;28;20690;-64
2023/05/03 05:39:24;;;;;;;1.10;1.10;;;;;7.80;96745.00;;;;5074631;28;20203;-65
2023/05/03 05:41:53;;;;;;;2.53;2.30;;;;;7.90;96746.00;;;;5074691;28;20206;-64
2023/05/03 05:44:20;;;;;;;2.30;1.73;;;;;8.00;96743.00;;;;5075014;28;20219;-64
2023/05/03 05:46:48;;;;;;;2.07;1.97;;;;;8.10;96742.00;;;;5074390;28;20215;-64
2023/05/03 05:49:15;;;;;;;1.10;1.10;;;;;8.20;96740.00;;;;5074151;28;20249;-64
2023/05/03 05:51:43;;;;;;;2.43;2.17;;;;;8.40;96741.00;;;;5074483;28;20195;-64
2023/05/03 05:54:11;;;;;;;1.20;1.20;;;;;8.40;96743.00;;;;5074407;28;20191;-64
2023/05/03 05:56:38;;;;;;;1.43;1.43;;;;;8.30;96742.00;;;;5074314;28;20207;-65
2023/05/03 05:59:07;;;;;;;1.50;1.40;;;;;8.30;96736.00;;;;5074401;28;20191;-65
2023/05/03 06:01:34;;;;;;;1.20;1.20;;;;;8.50;96740.00;;;;5074515;28;20275;-65
2023/05/03 06:04:04;;;;;;;3.60;2.93;;;;;8.20;96742.00;;;;5056335;28;20790;-65
2023/05/03 06:06:31;;;;;;;1.00;1.00;;;;;8.20;96751.00;;;;5074135;28;20269;-65
2023/05/03 06:08:58;;;;;;;2.00;1.80;;;;;8.40;96741.00;;;;5074183;28;20194;-64
2023/05/03 06:11:26;;;;;;;1.30;1.30;;;;;8.40;96744.00;;;;5074364;28;20200;-64
2023/05/03 06:13:54;;;;;;;1.43;1.43;;;;;8.50;96741.00;;;;5073937;28;20183;-65
2023/05/03 06:16:23;;;;;;;1.47;1.37;;;;;8.50;96735.00;;;;5071964;28;20226;-64
2023/05/03 06:18:52;;;;;;;1.17;1.17;;;;;8.60;96736.00;;;;5069845;28;20203;-60
2023/05/03 06:21:20;;;;;;;0.83;0.83;;;;;8.70;96742.00;;;;5070434;28;20666;-61
2023/05/03 06:23:47;;;;;;;3.37;2.67;;;;;8.80;96739.00;;;;5071768;28;20223;-61
2023/05/03 06:26:16;;;;;;;2.50;1.77;;;;;8.70;96739.00;;;;5053743;28;20223;-60
2023/05/03 06:28:44;;;;;;;5.30;1.70;;;;;8.80;96743.00;;;;5070200;28;20192;-64
2023/05/03 06:31:12;;;;;;;0.90;0.90;;;;;8.80;96751.00;;;;5071043;28;20206;-65
2023/05/03 06:33:40;;;;;;;2.20;2.03;;;;;8.80;96749.00;;;;5071965;28;20221;-64
2023/05/03 06:36:08;;;;;;;3.07;2.20;;;;;8.90;96756.00;;;;5071102;28;20221;-64
2023/05/03 06:38:36;;;;;;;2.47;2.37;;;;;8.80;96756.00;;;;5071405;28;20203;-64
2023/05/03 06:41:03;;;;;;;1.23;1.23;;;;;8.90;96758.00;;;;5071378;28;20199;-64
2023/05/03 06:43:31;;;;;;;1.07;1.07;;;;;8.90;96759.00;;;;5071800;28;20210;-65
2023/05/03 06:45:58;;;;;;;1.90;1.80;;;;;9.30;96763.00;;;;5070829;28;20232;-64
2023/05/03 06:48:26;;;;;;;1.90;1.80;;;;;9.60;96754.00;;;;5070218;28;20195;-64
2023/05/03 06:50:55;;;;;;;2.40;2.30;;;;;9.80;96753.00;;;;5071169;28;20199;-64
2023/05/03 06:53:22;;;;;;;1.93;1.83;;;;;9.60;96742.00;;;;5070533;28;20195;-64
2023/05/03 06:55:50;;;;;;;3.47;2.20;;;;;9.80;96731.00;;;;5070786;28;20219;-64
2023/05/03 06:58:17;;;;;;;3.37;2.27;;;;;9.70;96734.00;;;;5071535;28;20274;-64
2023/05/03 07:00:45;;;;;;;7.57;3.10;;;;;9.70;96745.00;;;;5070152;28;20206;-64
2023/05/03 07:03:12;;;;;;;1.93;1.73;;;;;9.70;96744.00;;;;5071463;28;20202;-64
2023/05/03 07:05:40;;;;;;;1.67;1.57;;;;;9.80;96747.00;;;;5071060;28;20219;-64
2023/05/03 07:08:09;;;;;;;1.20;1.20;;;;;9.70;96742.00;;;;5070038;28;20196;-64
2023/05/03 07:10:36;;;;;;;1.50;1.40;;;;;9.90;96744.00;;;;5069949;28;20218;-64
2023/05/03 07:13:04;;;;;;;1.97;1.80;;;;;10.00;96740.00;;;;5071400;28;20658;-64
2023/05/03 07:15:31;;;;;;;2.63;2.47;;;;;9.90;96736.00;;;;5071000;28;20215;-64
2023/05/03 07:17:59;;;;;;;2.87;2.67;;;;;10.00;96735.00;;;;5070883;28;20266;-64
2023/05/03 07:20:27;;;;;;;1.90;1.80;;;;;10.00;96735.00;;;;5070807;28;20196;-64
2023/05/03 07:22:54;;;;;;;1.70;1.60;;;;;10.20;96728.00;;;;5070944;28;20273;-64
2023/05/03 07:25:23;;;;;;;1.67;1.57;;;;;10.20;96724.00;;;;5070211;28;20241;-64
2023/05/03 07:27:51;;;;;;;2.67;2.47;;;;;10.20;96732.00;;;;5071120;28;20578;-64
2023/05/03 07:30:19;;;;;;;1.53;1.43;;;;;10.30;96720.00;;;;5070868;28;20252;-64
2023/05/03 07:32:46;;;;;;;2.57;2.37;;;;;10.60;96714.00;;;;5070729;28;20207;-64
2023/05/03 07:35:15;;;;;;;3.30;2.20;;;;;10.60;96725.00;;;;5070745;28;20702;-64
2023/05/03 07:37:43;;;;;;;3.07;1.97;;;;;10.80;96723.00;;;;5070844;28;20564;-65
2023/05/03 07:40:11;;;;;;;1.63;1.53;;;;;10.90;96724.00;;;;5070107;28;20249;-64
2023/05/03 07:42:40;;;;;;;2.80;2.57;;;;;11.00;96725.00;;;;5070761;28;20226;-64
2023/05/03 07:45:09;;;;;;;3.27;3.03;;;;;11.10;96719.00;;;;5070483;28;20223;-64
2023/05/03 07:47:38;;;;;;;2.57;2.23;;;;;11.10;96729.00;;;;5070773;28;20221;-64
2023/05/03 07:50:07;;;;;;;1.57;1.47;;;;;11.10;96727.00;;;;5070832;28;20195;-64
2023/05/03 07:52:36;;;;;;;2.53;2.07;;;;;11.20;96724.00;;;;5070601;28;20246;-64
2023/05/03 07:55:05;;;;;;;2.17;1.93;;;;;11.00;96718.00;;;;5070606;28;20219;-64
2023/05/03 07:57:34;;;;;;;1.83;1.73;;;;;11.20;96716.00;;;;5070628;28;20593;-64
2023/05/03 08:00:04;;;;;;;2.57;2.20;;;;;11.50;96709.00;;;;5070651;28;20204;-64
2023/05/03 08:02:32;;;;;;;2.30;2.20;;;;;11.60;96713.00;;;;5070546;28;20249;-64
2023/05/03 08:04:59;;;;;;;1.73;1.63;;;;;11.80;96715.00;;;;5070945;28;20600;-64
2023/05/03 08:07:27;;;;;;;2.43;1.83;;;;;12.00;96712.00;;;;5070234;28;20278;-64
2023/05/03 08:09:57;;;;;;;2.00;1.90;;;;;11.90;96715.00;;;;5070697;28;20200;-64
2023/05/03 08:12:25;;;;;;;2.23;2.07;;;;;12.10;96711.00;;;;5074377;28;20201;-64
2023/05/03 08:14:53;;;;;;;2.53;2.33;;;;;12.20;96716.00;;;;5074196;28;20217;-64
2023/05/03 08:17:22;;;;;;;2.43;1.90;;;;;12.30;96710.00;;;;5074387;28;20202;-65
2023/05/03 08:19:49;;;;;;;1.70;1.60;;;;;12.40;96713.00;;;;5069595;28;20550;-64
2023/05/03 08:22:17;;;;;;;4.17;2.23;;;;;12.70;96720.00;;;;5074118;28;20199;-64
2023/05/03 08:24:45;;;;;;;2.93;2.13;;;;;12.80;96713.00;;;;5073738;28;20211;-64
2023/05/03 08:27:12;;;;;;;3.33;3.03;;;;;13.00;96722.00;;;;5074115;28;20199;-64
2023/05/03 08:29:40;;;;;;;2.20;2.07;;;;;13.10;96720.00;;;;5074062;28;20554;-65
2023/05/03 08:32:07;;;;;;;1.90;1.80;;;;;13.30;96718.00;;;;5073941;28;20630;-64
2023/05/03 08:34:36;;;;;;;2.27;2.17;;;;;13.20;96718.00;;;;5074138;28;20196;-64
2023/05/03 08:37:04;;;;;;;2.13;1.93;;;;;13.40;96720.00;;;;5074090;28;20602;-64
2023/05/03 08:39:32;;;;;;;3.33;2.33;;;;;13.60;96711.00;;;;5073971;28;20203;-64
2023/05/03 08:42:00;;;;;;;2.70;2.53;;;;;13.60;96719.00;;;;5072638;28;20728;-65
2023/05/03 08:44:30;;;;;;;5.93;3.57;;;;;13.20;96721.00;;;;5073604;28;20297;-64
2023/05/03 08:46:59;;;;;;;1.10;1.10;;;;;13.60;96717.00;;;;5073442;28;20710;-65
2023/05/03 08:49:28;;;;;;;1.93;1.77;;;;;13.80;96729.00;;;;5055850;28;20276;-65
2023/05/03 08:51:57;;;;;;;9.63;1.93;;;;;14.10;96729.00;;;;5073543;28;20261;-64
2023/05/03 08:54:25;;;;;;;3.00;2.17;;;;;13.90;96739.00;;;;5073507;28;20654;-64
2023/05/03 08:56:53;;;;;;;1.97;1.77;;;;;13.70;96746.00;;;;5073457;28;20314;-64
2023/05/03 08:59:23;;;;;;;1.83;1.73;;;;;14.00;96734.00;;;;5073416;28;20225;-64
2023/05/03 09:01:51;;;;;;;1.00;1.00;;;;;14.00;96736.00;;;;5073460;28;20196;-64
2023/05/03 09:04:18;;;;;;;2.83;2.63;;;;;13.90;96739.00;;;;5072754;28;20195;-64
2023/05/03 09:06:45;;;;;;;2.13;1.93;;;;;13.90;96740.00;;;;5055553;28;20219;-64
2023/05/03 09:09:15;;;;;;;1.37;1.37;;;;;13.80;96728.00;;;;5073088;28;20207;-64
2023/05/03 09:11:42;;;;;;;1.37;1.27;;;;;13.80;96718.00;;;;5073295;28;20286;-63
2023/05/03 09:14:11;;;;;;;2.37;2.27;;;;;14.00;96716.00;;;;5073547;28;20191;-64
2023/05/03 09:16:40;;;;;;;2.67;1.87;;;;;14.10;96727.00;;;;5072264;28;20215;-64
2023/05/03 09:19:10;;;;;;;4.77;2.20;;;;;14.10;96715.00;;;;5055464;28;20206;-64
2023/05/03 09:21:38;;;;;;;2.30;2.20;;;;;14.20;96712.00;;;;5072758;28;20203;-64
2023/05/03 09:24:14;;;;;;;1.97;1.87;;;;;14.30;96714.00;;;;5072331;28;20204;-64
2023/05/03 09:26:42;;;;;;;4.53;2.43;;;;;14.20;96711.00;;;;5072720;28;20261;-64
2023/05/03 09:29:10;;;;;;;1.43;1.40;;;;;14.50;96703.00;;;;5072797;28;20191;-64
2023/05/03 09:31:57;;;;;;;2.17;2.07;;;;;14.60;96704.00;;;;5072803;28;20200;-64
2023/05/03 09:34:24;;;;;;;2.60;2.40;;;;;14.60;96711.00;;;;5070014;28;20187;-64
2023/05/03 09:36:52;;;;;;;1.83;1.73;;;;;14.90;96709.00;;;;5072535;28;20265;-64
2023/05/03 09:39:21;;;;;;;1.73;1.63;;;;;15.10;96701.00;;;;5072666;28;20191;-64
2023/05/03 09:41:49;;;;;;;1.77;1.67;;;;;15.10;96702.00;;;;5072595;28;20192;-63
2023/05/03 09:44:17;;;;;;;1.97;1.87;;;;;15.20;96708.00;;;;5072490;28;20192;-64
2023/05/03 09:47:03;;;;;;;1.37;1.27;;;;;15.10;96724.00;;;;5072183;28;20219;-64
2023/05/03 09:49:31;;;;;;;1.87;1.77;;;;;14.90;96700.00;;;;5072569;28;20192;-64
2023/05/03 09:52:00;;;;;;;1.13;1.13;;;;;15.20;96704.00;;;;5072748;28;20203;-64
2023/05/03 09:54:30;;;;;;;1.70;1.60;;;;;15.40;96701.00;;;;5072697;28;20194;-63
2023/05/03 09:56:57;;;;;;;2.87;2.07;;;;;16.10;96702.00;;;;5072008;28;20238;-64
2023/05/03 09:59:25;;;;;;;1.30;1.30;;;;;16.10;96703.00;;;;5072000;28;20689;-64
2023/05/03 10:01:57;;;;;;;2.70;2.00;;;;;16.60;96704.00;;;;5072546;28;20671;-64
2023/05/03 10:04:26;;;;;;;2.30;2.10;;;;;16.80;96698.00;;;;5070930;28;20188;-64
2023/05/03 10:06:58;;;;;;;4.73;2.40;;;;;17.20;96700.00;;;;5071192;28;20721;-64
2023/05/03 10:09:32;;;;;;;1.33;1.33;;;;;17.20;96705.00;;;;5069042;28;20187;-64
2023/05/03 10:12:02;;;;;;;2.83;1.83;;;;;16.60;96701.00;;;;5071652;28;20219;-64
2023/05/03 10:14:29;;;;;;;1.77;1.67;;;;;16.90;96685.00;;;;5071584;28;20231;-64
2023/05/03 10:17:01;;;;;;;1.63;1.53;;;;;17.10;96689.00;;;;5053110;28;20230;-64
2023/05/03 10:19:34;;;;;;;1.53;1.43;;;;;16.70;96692.00;;;;5071541;28;20199;-64
2023/05/03 10:22:05;;;;;;;2.73;2.27;;;;;17.10;96687.00;;;;5072128;28;20557;-64
2023/05/03 10:24:34;;;;;;;2.60;2.40;;;;;17.60;96691.00;;;;5071858;28;20689;-64
2023/05/03 10:27:03;;;;;;;1.60;1.50;;;;;17.50;96684.00;;;;5071483;28;20533;-64
2023/05/03 10:29:48;;;;;;;1.27;1.27;;;;;17.60;96682.00;;;;5067064;28;20569;-65
2023/05/03 10:32:32;;;;;;;1.50;1.40;;;;;18.20;96682.00;;;;5069216;28;20195;-64
2023/05/03 10:35:02;;;;;;;1.30;1.20;;;;;18.70;96676.00;;;;5070641;28;20694;-67
2023/05/03 10:37:32;;;;;;;2.97;2.63;;;;;19.00;96678.00;;;;5067541;28;20192;-64
2023/05/03 10:40:11;;;;;;;1.80;1.70;;;;;18.70;96686.00;;;;5071526;28;20195;-63
2023/05/03 10:42:43;;;;;;;1.93;1.83;;;;;18.60;96672.00;;;;5071382;28;20187;-66
2023/05/03 10:45:21;;;;;;;2.97;2.30;;;;;18.90;96667.00;;;;5070762;28;20222;-64
2023/05/03 10:48:21;;;;;;;2.23;2.03;;;;;18.40;96686.00;;;;5071705;28;20234;-64
2023/05/03 10:50:50;;;;;;;2.53;2.00;;;;;18.40;96660.00;;;;5070180;28;20677;-64
2023/05/03 10:53:38;;;;;;;1.57;1.47;;;;;18.40;96666.00;;;;5071715;28;20557;-65
2023/05/03 10:56:08;;;;;;;1.27;1.27;;;;;18.90;96654.00;;;;5066804;28;20211;-65
2023/05/03 10:58:41;;;;;;;1.63;1.53;;;;;18.90;96656.00;;;;5071307;28;20643;-66
2023/05/03 11:01:11;;;;;;;2.50;2.30;;;;;19.10;96651.00;;;;5071227;28;20191;-66
2023/05/03 11:03:46;;;;;;;2.27;1.87;;;;;18.30;96645.00;;;;5070894;28;20226;-66
2023/05/03 11:06:30;;;;;;;1.57;1.47;;;;;18.70;96648.00;;;;5071003;28;20750;-66
2023/05/03 11:08:57;;;;;;;4.03;2.20;;;;;19.40;96645.00;;;;5066861;28;20240;-66
2023/05/03 11:11:26;;;;;;;4.37;1.40;;;;;19.40;96638.00;;;;5071493;28;20206;-66
2023/05/03 11:13:54;;;;;;;1.50;1.50;;;;;19.00;96633.00;;;;5068792;28;20191;-66
2023/05/03 11:16:21;;;;;;;2.43;2.23;;;;;19.50;96639.00;;;;5071293;28;20261;-65
2023/05/03 11:18:50;;;;;;;2.27;2.07;;;;;19.80;96636.00;;;;5070809;28;20195;-65
2023/05/03 11:21:18;;;;;;;1.17;1.17;;;;;19.80;96654.00;;;;5071339;28;20225;-66
2023/05/03 11:23:46;;;;;;;1.40;1.23;;;;;19.80;96627.00;;;;5070566;28;20205;-65
2023/05/03 11:26:14;;;;;;;1.00;1.00;;;;;19.80;96628.00;;;;5071106;28;20219;-65
2023/05/03 11:28:44;;;;;;;1.00;1.00;;;;;19.90;96621.00;;;;5070431;28;20191;-64
2023/05/03 11:31:12;;;;;;;1.87;1.77;;;;;19.70;96612.00;;;;5071224;28;20253;-64
2023/05/03 11:33:41;;;;;;;2.60;2.40;;;;;19.90;96618.00;;;;5070798;28;20244;-64
2023/05/03 11:36:09;;;;;;;1.80;1.70;;;;;19.80;96646.00;;;;5071005;28;20250;-65
2023/05/03 11:38:39;;;;;;;2.97;2.23;;;;;19.10;96643.00;;;;5070334;28;20199;-65
2023/05/03 11:41:17;;;;;;;0.93;0.93;;;;;18.60;96640.00;;;;5051962;28;21902;-65
2023/05/03 11:43:49;;;;;;;2.00;1.80;;;;;18.70;96621.00;;;;5070402;28;20203;-65
2023/05/03 11:46:23;;;;;;;1.77;1.67;;;;;19.20;96621.00;;;;5072428;28;20230;-65
2023/05/03 11:48:50;;;;;;;1.37;1.30;;;;;19.60;96621.00;;;;5069503;28;20192;-64
2023/05/03 11:51:22;;;;;;;1.67;1.07;;;;;19.90;96612.00;;;;5074736;28;20195;-64
2023/05/03 11:53:50;;;;;;;0.70;0.70;;;;;19.90;96616.00;;;;5074233;28;20188;-65
2023/05/03 11:56:19;;;;;;;1.43;1.37;;;;;18.90;96610.00;;;;5074872;28;20215;-66
2023/05/03 11:58:59;;;;;;;1.53;1.43;;;;;19.70;96621.00;;;;5074016;28;20222;-65
2023/05/03 12:01:28;;;;;;;3.00;1.33;;;;;19.50;96615.00;;;;5074862;28;20298;-64
2023/05/03 12:03:59;;;;;;;1.27;1.27;;;;;20.30;96617.00;;;;5073975;28;20199;-65
2023/05/03 12:06:27;;;;;;;2.47;2.03;;;;;20.80;96622.00;;;;5074584;28;20225;-64
2023/05/03 12:08:55;;;;;;;1.70;1.30;;;;;21.10;96623.00;;;;5074006;28;20195;-64
2023/05/03 12:11:26;;;;;;;1.73;1.63;;;;;21.70;96626.00;;;;5074680;28;20671;-64
2023/05/03 12:13:59;;;;;;;1.63;1.53;;;;;21.80;96619.00;;;;5074025;28;20271;-65
2023/05/03 12:16:46;;;;;;;1.00;1.00;;;;;21.90;96610.00;;;;5074518;28;20218;-65
2023/05/03 12:19:22;;;;;;;1.67;1.57;;;;;22.40;96619.00;;;;5086434;28;20203;-65
2023/05/03 12:21:50;;;;;;;1.38;1.30;;;;;21.90;96622.00;;;;5073122;28;20562;-64
2023/05/03 12:24:18;;;;;;;0.90;0.90;;;;;22.40;96610.00;;;;5073741;28;20202;-64
2023/05/03 12:26:46;;;;;;;1.70;1.60;;;;;21.70;96604.00;;;;5074245;28;20272;-64
2023/05/03 12:29:15;;;;;;;1.67;1.58;;;;;21.80;96613.00;;;;5055590;28;20211;-67
2023/05/03 12:31:43;;;;;;;1.60;1.50;;;;;21.50;96613.00;;;;5073832;28;20252;-65
2023/05/03 12:34:13;;;;;;;1.50;1.40;;;;;21.80;96616.00;;;;5072739;28;20207;-65